Etusivu
METAR-TAF:

METAR-TAF

Lentoasemat :

Peace River, Alberta, Kanada

Leveyspiiri: 56-14N, Pituuspiiri: 117-26W, korkeus merenpinnasta: 571 m

Tämänhetkinen sää

Tämä raportti tehtiin 23 minuuttia sitten, kello 11.00 UTC
Tuuli 4 kn pohjoisesta
Lämpötila 5°C
Kosteus 70%
Ilmanpaine 1019 hPa
Näkyvyys: 24.1 km
Muutamia pilviä 10000 ft:n korkeudessa
Hajonneita pilviä 21000 ft:n korkeudessa

METAR: CYPE 221100Z 36004KT 15SM FEW100 BKN210 05/M00 A3008 RMK AC1CI7 AC TR SLP199

Aika: 05:23 (11:23 UTC)

Sääennuste

Tämä raportti tehtiin 4 tuntia ja 45 minuuttia sitten, kello 06.38 UTC
Ennuste voimassa 22. päivästä klo 07 UTC - 22. päivään klo 19 UTC
Tuuli 6 kn pohjoisesta/koillisesta
Näkyvyys: 10 km
Hajanaisia pilviä 10000 ft:n korkeudessa
Ajoittain
22. päivästä klo 07 UTC - 22. päivään klo 14 UTC
Näkyvyys: 8.0 km
savua

TAF: CYPE 220638Z 2207/2219 03006KT P6SM SCT100 TEMPO 2207/2214 5SM FU RMK NXT FCST BY 221300Z

Säähavainnot ja -ennusteet yli 4000 lentoasemalta (METAR- ja TAF-raportit).

Käytössä olevat sääasemat on merkitty karttaan keltaisilla ja punaisilla pisteillä.

Aseta hiiri pisteen päälle nähdäksesi sääaseman nimen.

Klikkaa sitten nähdäksesi säähavainnot ja -ennusteet.

Kartan vaihtaminen: klikkaa mustalla rastilla varustettuja vihreitä pisteitä, niin voit zoomata sisään; viivalla varustettua vihreää pistettä, niin voit zoomata ulos tai vihreitä nuolia, niin pääset viereisille kartoille.


METAR-TAF: